الصفحة الرئيسية
METAR-TAF:

METAR-TAF

مطار :

مطار مونتريال الدولي

مونتريال Trudeau, كيبك, كندا

دائرة عرض: 45-28N, خط طول: 073-45W, ارتفاع: 31 متر

مراقبة الطقس الحالي

تاريخ ووقت الإصدار 1ساعة و 8 دقيقة قبل الساعة 14:00UTC
ريح 11 عقدة من الشمال/الشمال الشرقي
درجة الحرارة -9°درجة مئوية
الرطوبة 67%
ضغط 1022 hPa
الرؤية: 24.1 كم
غيوم مفككة على ارتفاع 2500 قدم

METAR: CYUL 121400Z 02011KT 15SM BKN025 M09/M14 A3018 RMK SC6 SLP223

زمن: 10:08 (15:08 UTC)

توقعات

تاريخ ووقت الإصدار 30 دقيقة قبل الساعة 14:38UTC
التوقعات صالحة من12 الساعة 15 UTC إلى 13 الساعة 12 UTC
ريح 10 عقدة من الشمال/الشمال الشرقي
الرؤية: 10 كم
غيوم قليلة على ارتفاع 3000 قدم
أصبح
من 12 الساعة 18 UTC إلى 12 الساعة 20 UTC
ريح 7 عقدة من الشرق/الشمال الشرقي

TAF: CYUL 121438Z 1215/1312 02010KT P6SM FEW030 BECMG 1218/1220 06007KT RMK NXT FCST BY 121800Z

أرصاد الطقس والتوقعات من أكثر من 4000 مطار (تقارير الطقس للمطار METAR والتنبؤ بالطقس بالمطارTAF).

المحطات المتاحة هي النقط الصفراء والحمراء على الخريطة.

حرك المؤشر فوق النقطة لمعرفة اسم المحطة.

ثم انقر لمعرفة أرصاد وتوقعات الطقس.

لتغيير الخارطة: اضغط على الأزرار الخضراء مع رمز الصليب الأسود للتكبير. على الزر الأخضر مع شرطة للتصغير، أو على الأسهم الخضراء للخرائط المجاورة.


METAR-TAF: